Blodgett Mills, New York
Current Conditions -  °F | °C
As of 10:15 AM on Monday 24 Nov 2014 (Local Time) from KN03 Reporting Station
Broken Clouds Broken Clouds  
Wind Chill: 64°   Ceiling: 3200
Heat Index: 64°   Visibility: 10mi
Dew Point: 55°   Wind: 16mph
Humidity: 73%   Direction: 190°S
Pressure: 29.49"   Gusts: 21mph
Location:  42.57°N, 76.13°W
Report Text: KN03 241515Z AUTO 19014G18KT 10SM SCT027 BKN032 BKN039 18/13 A2949 RMK AO2
Loading
Personal Weather Stations






























Interactive Weather Map New forecast layout! Learn more

10-Day Weather Forecast

Advertisements
Track Severe Weather on mobile